createdAt,value
2024-02-14T00:03:33.062Z,2.60
2024-02-14T00:08:27.773Z,2.70
2024-02-14T00:13:31.966Z,2.90
2024-02-14T00:19:14.690Z,3.00
2024-02-14T00:25:05.811Z,2.90
2024-02-14T00:30:57.467Z,3.10
2024-02-14T00:36:41.280Z,3.10
2024-02-14T00:47:55.338Z,3.10
2024-02-14T00:53:26.754Z,3.30
2024-02-14T00:59:03.541Z,3.40
2024-02-14T01:04:26.558Z,3.30
2024-02-14T01:10:12.729Z,3.30
2024-02-14T01:22:16.632Z,3.20
2024-02-14T01:28:39.481Z,3.20
2024-02-14T01:34:41.833Z,3.30
2024-02-14T01:40:10.914Z,3.50
2024-02-14T01:46:31.664Z,3.60
2024-02-14T01:57:27.179Z,3.60
2024-02-14T02:02:49.716Z,3.50
2024-02-14T02:08:36.532Z,3.50
2024-02-14T02:19:52.121Z,3.30
2024-02-14T02:32:26.374Z,3.10
2024-02-14T02:37:58.873Z,3.20
2024-02-14T02:43:17.765Z,3.30
2024-02-14T02:48:39.205Z,3.30
2024-02-14T02:59:18.220Z,3.70
2024-02-14T03:04:51.685Z,3.90
2024-02-14T03:11:07.132Z,4.00
2024-02-14T03:17:29.721Z,4.20
2024-02-14T03:23:48.994Z,4.30
2024-02-14T03:29:25.324Z,4.30
2024-02-14T03:34:44.382Z,4.30
2024-02-14T03:40:02.774Z,4.30
2024-02-14T03:45:15.162Z,4.30
2024-02-14T03:50:43.017Z,4.30
2024-02-14T03:56:52.966Z,4.30
2024-02-14T04:01:55.764Z,4.30
2024-02-14T04:06:47.191Z,4.50
2024-02-14T04:12:07.496Z,4.50
2024-02-14T04:16:52.803Z,4.50
2024-02-14T04:21:36.304Z,4.50
2024-02-14T04:26:22.978Z,4.50
2024-02-14T04:31:08.467Z,4.50
2024-02-14T04:36:13.557Z,4.40
2024-02-14T04:40:58.144Z,4.30
2024-02-14T04:45:43.777Z,4.30
2024-02-14T04:50:35.024Z,4.10
2024-02-14T04:55:24.603Z,4.00
2024-02-14T05:00:12.547Z,3.90
2024-02-14T05:04:56.307Z,3.80
2024-02-14T05:09:49.379Z,3.90
2024-02-14T05:14:33.054Z,3.80
2024-02-14T05:19:23.132Z,3.70
2024-02-14T05:24:09.434Z,3.70
2024-02-14T05:29:02.078Z,3.70
2024-02-14T05:33:46.375Z,3.80
2024-02-14T05:38:35.513Z,3.80
2024-02-14T05:43:21.140Z,4.00
2024-02-14T05:48:13.917Z,4.20
2024-02-14T05:52:58.890Z,4.50
2024-02-14T05:57:45.942Z,4.50
2024-02-14T06:02:35.445Z,4.60
2024-02-14T06:07:22.805Z,4.70
2024-02-14T06:12:12.256Z,4.70
2024-02-14T06:16:57.807Z,4.60
2024-02-14T06:21:46.858Z,4.50
2024-02-14T06:26:34.732Z,4.50
2024-02-14T06:31:25.000Z,4.70
2024-02-14T06:36:08.656Z,4.80
2024-02-14T06:40:59.912Z,4.80
2024-02-14T06:45:46.999Z,4.80
2024-02-14T06:50:50.484Z,5.00
2024-02-14T06:55:36.376Z,5.10
2024-02-14T07:00:24.286Z,5.30
2024-02-14T07:05:17.385Z,5.40
2024-02-14T07:10:00.809Z,5.50
2024-02-14T07:14:52.783Z,5.60
2024-02-14T07:19:39.870Z,5.90
2024-02-14T07:24:25.403Z,6.00
2024-02-14T07:29:13.340Z,6.10
2024-02-14T07:34:00.167Z,6.20
2024-02-14T07:38:48.909Z,6.40
2024-02-14T07:43:41.206Z,6.70
2024-02-14T07:48:26.583Z,6.90
2024-02-14T07:53:13.974Z,7.20
2024-02-14T07:58:03.317Z,7.40
2024-02-14T08:02:50.798Z,7.60
2024-02-14T08:07:40.437Z,7.80
2024-02-14T08:12:26.834Z,8.10
2024-02-14T08:17:16.396Z,8.20
2024-02-14T08:22:03.764Z,8.10
2024-02-14T08:26:49.363Z,8.10
2024-02-14T08:31:39.078Z,8.30
2024-02-14T08:36:25.072Z,8.60
2024-02-14T08:41:15.476Z,8.50
2024-02-14T08:46:00.195Z,8.70
2024-02-14T08:50:47.160Z,8.90
2024-02-14T08:55:37.975Z,8.90
2024-02-14T09:00:25.983Z,8.90
2024-02-14T09:05:16.050Z,9.10
2024-02-14T09:10:00.272Z,9.20
2024-02-14T09:14:50.575Z,9.20
2024-02-14T09:19:39.141Z,9.50
2024-02-14T09:24:26.346Z,9.50
2024-02-14T09:29:16.950Z,9.70
2024-02-14T09:34:02.785Z,9.70
2024-02-14T09:39:21.361Z,9.50
2024-02-14T09:44:13.635Z,9.70
2024-02-14T09:49:00.980Z,9.80
2024-02-14T09:53:47.053Z,10.00
2024-02-14T09:58:37.684Z,10.30
2024-02-14T10:03:22.932Z,10.60
2024-02-14T10:08:13.933Z,10.70
2024-02-14T10:12:58.071Z,11.00
2024-02-14T10:24:41.966Z,11.10
2024-02-14T10:42:38.064Z,11.00
2024-02-14T10:48:15.500Z,11.00
2024-02-14T10:54:08.436Z,10.90
2024-02-14T11:00:41.309Z,10.70
2024-02-14T11:12:48.060Z,11.30
2024-02-14T11:18:22.918Z,11.30
2024-02-14T11:24:22.052Z,11.50
2024-02-14T11:29:51.415Z,11.70
2024-02-14T11:35:12.091Z,11.60
2024-02-14T11:40:47.602Z,11.50
2024-02-14T11:46:20.435Z,11.80
2024-02-14T11:51:44.016Z,12.20
2024-02-14T12:04:26.146Z,12.60
2024-02-14T12:09:33.475Z,12.30
2024-02-14T12:15:19.487Z,12.30
2024-02-14T12:20:32.110Z,12.30
2024-02-14T12:26:17.864Z,12.30
2024-02-14T12:31:38.242Z,11.90
2024-02-14T12:43:36.369Z,12.00
2024-02-14T12:49:12.196Z,12.00
2024-02-14T12:59:56.142Z,12.10
2024-02-14T13:06:33.954Z,11.90
2024-02-14T13:11:23.129Z,11.90
2024-02-14T13:16:45.654Z,11.90
2024-02-14T13:22:02.588Z,12.30
2024-02-14T13:27:21.971Z,12.60
2024-02-14T13:45:17.208Z,12.40
2024-02-14T14:13:32.174Z,11.80
2024-02-14T14:19:02.348Z,11.70
2024-02-14T14:24:42.436Z,11.70
2024-02-14T14:36:30.575Z,11.10
2024-02-14T14:42:20.722Z,10.90
2024-02-14T14:47:41.127Z,10.90
2024-02-14T14:54:36.034Z,11.10
2024-02-14T14:59:41.867Z,11.00
2024-02-14T15:05:02.840Z,10.80
2024-02-14T15:11:19.859Z,10.60
2024-02-14T15:17:13.950Z,10.40
2024-02-14T15:22:16.157Z,10.30
2024-02-14T15:27:22.343Z,10.30
2024-02-14T15:32:31.218Z,10.20
2024-02-14T15:37:31.355Z,10.20
2024-02-14T15:43:39.308Z,10.20
2024-02-14T15:48:40.089Z,10.00
2024-02-14T16:06:17.643Z,9.80
2024-02-14T16:12:08.735Z,9.70
2024-02-14T16:18:30.361Z,9.70
2024-02-14T16:24:40.666Z,9.60
2024-02-14T16:29:33.437Z,9.60
2024-02-14T16:34:17.588Z,9.50
2024-02-14T16:39:08.744Z,9.30
2024-02-14T16:43:53.171Z,9.30
2024-02-14T16:48:41.192Z,9.30
2024-02-14T16:53:30.668Z,9.20
2024-02-14T16:58:17.365Z,9.20
2024-02-14T17:03:12.185Z,9.10
2024-02-14T17:08:11.914Z,9.10
2024-02-14T17:12:57.302Z,9.00
2024-02-14T17:17:50.629Z,9.00
2024-02-14T17:22:34.171Z,9.00
2024-02-14T17:27:21.864Z,8.90
2024-02-14T17:32:23.629Z,8.90
2024-02-14T17:37:15.643Z,8.90
2024-02-14T17:42:01.565Z,8.90
2024-02-14T17:46:49.622Z,9.00
2024-02-14T17:51:44.645Z,9.00
2024-02-14T17:56:38.683Z,8.90
2024-02-14T18:01:28.154Z,8.90
2024-02-14T18:06:16.278Z,8.90
2024-02-14T18:11:05.502Z,8.90
2024-02-14T18:15:53.808Z,8.90
2024-02-14T18:20:40.362Z,9.00
2024-02-14T18:25:32.966Z,9.00
2024-02-14T18:30:19.589Z,8.90
2024-02-14T18:35:05.960Z,8.90
2024-02-14T18:39:55.033Z,9.00
2024-02-14T18:44:43.507Z,8.90
2024-02-14T18:49:29.351Z,8.90
2024-02-14T18:54:24.573Z,8.80
2024-02-14T18:59:19.710Z,8.90
2024-02-14T19:04:14.272Z,8.90
2024-02-14T19:08:58.068Z,9.00
2024-02-14T19:13:41.911Z,8.90
2024-02-14T19:18:26.828Z,9.00
2024-02-14T19:23:23.700Z,8.90
2024-02-14T19:28:10.675Z,8.90
2024-02-14T19:32:57.380Z,8.90
2024-02-14T19:37:47.018Z,9.00
2024-02-14T19:42:32.359Z,8.90
2024-02-14T19:47:24.805Z,9.00
2024-02-14T19:52:12.813Z,9.00
2024-02-14T19:56:58.643Z,9.00
2024-02-14T20:01:46.232Z,8.90
2024-02-14T20:06:34.301Z,8.80
2024-02-14T20:11:19.496Z,8.90
2024-02-14T20:16:09.226Z,8.90
2024-02-14T20:20:58.585Z,8.90
2024-02-14T20:25:47.418Z,9.10
2024-02-14T20:30:33.761Z,9.00
2024-02-14T20:35:23.515Z,8.90
2024-02-14T20:40:27.106Z,9.10
2024-02-14T20:45:14.056Z,9.10
2024-02-14T20:50:03.387Z,9.00
2024-02-14T20:54:49.088Z,9.10
2024-02-14T20:59:38.061Z,9.30
2024-02-14T21:04:27.769Z,9.30
2024-02-14T21:09:15.035Z,9.30
2024-02-14T21:14:04.722Z,9.30
2024-02-14T21:18:50.257Z,9.20
2024-02-14T21:23:38.721Z,9.20
2024-02-14T21:28:28.119Z,9.10
2024-02-14T21:33:15.438Z,9.10
2024-02-14T21:38:01.515Z,9.00
2024-02-14T21:42:51.107Z,9.10
2024-02-14T21:47:41.127Z,9.00
2024-02-14T21:52:28.560Z,8.90
2024-02-14T21:57:31.642Z,9.00
2024-02-14T22:02:18.280Z,8.90
2024-02-14T22:07:09.770Z,9.20
2024-02-14T22:11:53.254Z,9.20
2024-02-14T22:16:41.222Z,9.10
2024-02-14T22:21:29.470Z,9.00
2024-02-14T22:36:48.285Z,8.80
2024-02-14T22:47:26.731Z,8.70
2024-02-14T22:52:47.460Z,8.60
2024-02-14T22:57:43.021Z,8.80
2024-02-14T23:02:44.864Z,8.70
2024-02-14T23:07:33.739Z,8.70
2024-02-14T23:12:23.573Z,8.70
2024-02-14T23:17:43.384Z,8.70
2024-02-14T23:22:43.992Z,8.60
2024-02-14T23:27:30.939Z,8.60
2024-02-14T23:32:54.021Z,8.60
2024-02-14T23:38:30.754Z,8.60
2024-02-14T23:43:33.703Z,8.50
2024-02-14T23:48:36.837Z,8.50
2024-02-14T23:53:27.394Z,8.40
2024-02-14T23:58:57.649Z,8.40
